You are listening to:
EHAM App/Dep TMA East - Amsterdam, Netherlands

EHAM 291155Z 31009KT 270V350 9000 -SHRA FEW011 SCT019CB 05/03 Q1008 RESHRA TEMPO 36015KT 7000

If stream doesn't start automatically press the play button
If stream stops then reload player then press play